Time;durP1;ratioP1;P1;durP2;ratioP2;P2;SDS_P1;SDS_P2;PMS_P1;PMS_P2;Temp;Humidity;BMP_temperature;BMP_pressure;BME280_temperature;BME280_humidity;BME280_pressure;Samples;Min_cycle;Max_cycle;Signal;HPM_P1;HPM_P2
2023/05/27 00:02:02;;;;;;;23.03;7.00;;;;;;;;;;5030348;28;20415;-59
2023/05/27 00:04:29;;;;;;;19.92;6.97;;;;;;;;;;5023796;28;20945;-60
2023/05/27 00:06:56;;;;;;;23.38;7.05;;;;;;;;;;5029761;28;20426;-59
2023/05/27 00:09:23;;;;;;;19.27;7.18;;;;;;;;;;5020559;28;20422;-58
2023/05/27 00:11:50;;;;;;;20.05;6.25;;;;;;;;;;5024315;28;20423;-59
2023/05/27 00:14:18;;;;;;;17.63;6.72;;;;;;;;;;5026560;28;20446;-59
2023/05/27 00:16:47;;;;;;;21.67;7.10;;;;;;;;;;5023905;28;20419;-59
2023/05/27 00:19:14;;;;;;;22.73;7.22;;;;;;;;;;5019833;28;20415;-60
2023/05/27 00:21:41;;;;;;;20.45;6.75;;;;;;;;;;5020202;28;20484;-59
2023/05/27 00:24:09;;;;;;;20.63;6.35;;;;;;;;;;5021459;28;20420;-59
2023/05/27 00:26:36;;;;;;;24.13;7.47;;;;;;;;;;5021433;28;20431;-57
2023/05/27 00:29:03;;;;;;;17.10;6.38;;;;;;;;;;5030377;28;20485;-59
2023/05/27 00:31:30;;;;;;;14.25;6.22;;;;;;;;;;5022117;28;20426;-59
2023/05/27 00:33:58;;;;;;;17.30;6.10;;;;;;;;;;5022277;28;20424;-56
2023/05/27 00:36:25;;;;;;;17.23;6.82;;;;;;;;;;5032238;28;20481;-57
2023/05/27 00:38:52;;;;;;;18.13;6.20;;;;;;;;;;5025610;28;20994;-58
2023/05/27 00:41:19;;;;;;;18.27;6.85;;;;;;;;;;5020026;28;20540;-56
2023/05/27 00:43:46;;;;;;;17.13;7.10;;;;;;;;;;5022456;28;20427;-56
2023/05/27 00:46:13;;;;;;;19.30;7.15;;;;;;;;;;5022807;28;20468;-56
2023/05/27 00:48:40;;;;;;;21.20;7.25;;;;;;;;;;5020756;28;20404;-57
2023/05/27 00:51:08;;;;;;;24.10;7.32;;;;;;;;;;5023942;28;20430;-54
2023/05/27 00:53:41;;;;;;;23.10;7.45;;;;;;;;;;5020459;28;20412;-54
2023/05/27 00:56:08;;;;;;;25.25;7.78;;;;;;;;;;5020908;28;20423;-58
2023/05/27 00:58:36;;;;;;;24.83;7.43;;;;;;;;;;5022945;28;20438;-58
2023/05/27 01:01:03;;;;;;;21.75;7.65;;;;;;;;;;5024998;28;20458;-56
2023/05/27 01:03:33;;;;;;;28.73;7.70;;;;;;;;;;5020359;28;20475;-57
2023/05/27 01:06:04;;;;;;;20.83;7.50;;;;;;;;;;5028712;28;20477;-59
2023/05/27 01:08:39;;;;;;;24.73;7.63;;;;;;;;;;5023424;28;20425;-57
2023/05/27 01:11:09;;;;;;;20.80;7.73;;;;;;;;;;5020259;28;20868;-56
2023/05/27 01:13:38;;;;;;;21.35;7.55;;;;;;;;;;5020490;28;20409;-58
2023/05/27 01:16:08;;;;;;;23.27;7.55;;;;;;;;;;5020199;28;20420;-58
2023/05/27 01:18:36;;;;;;;20.98;7.50;;;;;;;;;;5030178;28;20807;-59
2023/05/27 01:21:06;;;;;;;19.15;7.47;;;;;;;;;;5019941;28;20420;-59
2023/05/27 01:23:34;;;;;;;25.02;8.02;;;;;;;;;;5033502;28;20507;-52
2023/05/27 01:26:01;;;;;;;22.58;7.60;;;;;;;;;;5020594;28;20416;-56
2023/05/27 01:28:28;;;;;;;19.60;7.82;;;;;;;;;;5021890;28;20882;-54
2023/05/27 01:31:00;;;;;;;24.23;8.13;;;;;;;;;;5020753;28;20459;-55
2023/05/27 01:33:30;;;;;;;22.80;8.18;;;;;;;;;;5019300;28;20456;-57
2023/05/27 01:36:01;;;;;;;21.30;7.80;;;;;;;;;;5026196;28;20427;-54
2023/05/27 01:38:29;;;;;;;20.65;7.75;;;;;;;;;;5021832;28;20820;-57
2023/05/27 01:40:58;;;;;;;20.17;7.82;;;;;;;;;;5020386;28;20460;-53
2023/05/27 01:43:25;;;;;;;22.80;8.23;;;;;;;;;;5021971;28;20449;-56
2023/05/27 01:45:52;;;;;;;22.00;7.80;;;;;;;;;;5021798;28;20419;-54
2023/05/27 01:48:19;;;;;;;20.60;8.45;;;;;;;;;;5022221;28;20469;-58
2023/05/27 01:50:46;;;;;;;23.25;7.53;;;;;;;;;;5019944;28;20921;-52
2023/05/27 01:53:13;;;;;;;21.80;8.20;;;;;;;;;;5020169;28;20483;-57
2023/05/27 01:55:40;;;;;;;16.95;7.60;;;;;;;;;;5023224;28;20419;-57
2023/05/27 01:58:09;;;;;;;23.30;8.07;;;;;;;;;;5021682;28;20418;-57
2023/05/27 02:00:36;;;;;;;24.55;8.05;;;;;;;;;;5018867;28;20452;-59
2023/05/27 02:03:03;;;;;;;23.27;8.95;;;;;;;;;;5025587;28;20425;-59
2023/05/27 02:05:30;;;;;;;21.70;8.05;;;;;;;;;;5027288;28;20885;-59
2023/05/27 02:07:57;;;;;;;24.15;8.63;;;;;;;;;;5029283;28;20831;-58
2023/05/27 02:10:24;;;;;;;20.20;7.75;;;;;;;;;;5026111;28;20432;-57
2023/05/27 02:12:52;;;;;;;17.67;7.82;;;;;;;;;;5018124;28;20484;-58
2023/05/27 02:15:23;;;;;;;18.55;7.65;;;;;;;;;;5024053;28;20423;-58
2023/05/27 02:17:54;;;;;;;20.48;8.25;;;;;;;;;;5022620;28;20418;-58
2023/05/27 02:20:21;;;;;;;21.77;7.82;;;;;;;;;;5021348;28;20467;-58
2023/05/27 02:22:49;;;;;;;20.53;7.90;;;;;;;;;;5023236;28;20415;-59
2023/05/27 02:25:16;;;;;;;26.40;8.18;;;;;;;;;;5020855;28;20863;-58
2023/05/27 02:27:47;;;;;;;22.88;8.27;;;;;;;;;;5023616;28;20419;-58
2023/05/27 02:30:14;;;;;;;24.63;8.20;;;;;;;;;;5027235;28;20785;-58
2023/05/27 02:32:43;;;;;;;24.10;8.23;;;;;;;;;;5023369;28;20428;-59
2023/05/27 02:35:10;;;;;;;24.50;8.77;;;;;;;;;;5029397;28;20418;-59
2023/05/27 02:37:37;;;;;;;20.85;8.48;;;;;;;;;;5034438;28;20476;-59
2023/05/27 02:40:05;;;;;;;24.00;9.07;;;;;;;;;;5022958;28;20424;-59
2023/05/27 02:42:32;;;;;;;21.20;8.68;;;;;;;;;;5033669;28;20917;-59
2023/05/27 02:44:59;;;;;;;26.50;8.75;;;;;;;;;;5026811;28;20414;-59
2023/05/27 02:47:26;;;;;;;21.48;8.95;;;;;;;;;;5018231;28;20424;-59
2023/05/27 02:49:54;;;;;;;18.73;8.65;;;;;;;;;;5025016;28;20485;-59
2023/05/27 02:52:21;;;;;;;24.38;8.85;;;;;;;;;;5024019;28;20416;-57
2023/05/27 02:54:48;;;;;;;24.83;8.93;;;;;;;;;;5025532;28;20424;-58
2023/05/27 02:57:15;;;;;;;21.05;8.50;;;;;;;;;;5029006;28;20470;-59
2023/05/27 02:59:42;;;;;;;25.23;8.90;;;;;;;;;;5024605;28;20415;-57
2023/05/27 03:02:09;;;;;;;27.63;9.27;;;;;;;;;;5017990;28;20463;-57
2023/05/27 03:04:36;;;;;;;23.58;8.65;;;;;;;;;;5021680;28;20423;-59
2023/05/27 03:07:05;;;;;;;29.10;10.02;;;;;;;;;;5035137;28;20756;-59
2023/05/27 03:09:32;;;;;;;25.30;9.07;;;;;;;;;;5030271;28;20488;-59
2023/05/27 03:11:59;;;;;;;21.83;8.52;;;;;;;;;;5029355;28;20431;-58
2023/05/27 03:14:26;;;;;;;24.58;9.18;;;;;;;;;;5037184;28;20473;-58
2023/05/27 03:16:53;;;;;;;22.65;9.75;;;;;;;;;;5026055;28;20474;-58
2023/05/27 03:19:20;;;;;;;28.58;9.93;;;;;;;;;;5022506;28;20419;-58
2023/05/27 03:21:47;;;;;;;22.02;8.85;;;;;;;;;;5033989;28;20407;-58
2023/05/27 03:24:15;;;;;;;25.92;9.00;;;;;;;;;;5026704;28;20420;-58
2023/05/27 03:26:42;;;;;;;23.83;9.70;;;;;;;;;;5022367;28;20420;-58
2023/05/27 03:29:09;;;;;;;24.38;9.32;;;;;;;;;;5025970;28;20425;-58
2023/05/27 03:31:36;;;;;;;25.65;9.65;;;;;;;;;;5022161;28;20429;-59
2023/05/27 03:34:03;;;;;;;22.77;9.35;;;;;;;;;;5022351;28;20427;-58
2023/05/27 03:36:30;;;;;;;19.70;9.57;;;;;;;;;;5032117;28;20901;-55
2023/05/27 03:38:58;;;;;;;24.73;10.23;;;;;;;;;;5024891;28;20818;-58
2023/05/27 03:41:26;;;;;;;28.20;11.52;;;;;;;;;;5020946;28;20456;-58
2023/05/27 03:43:53;;;;;;;27.33;11.20;;;;;;;;;;5024737;28;20428;-58
2023/05/27 03:46:20;;;;;;;27.27;10.95;;;;;;;;;;5025544;28;20945;-58
2023/05/27 03:48:47;;;;;;;24.08;11.02;;;;;;;;;;5025800;28;20830;-59
2023/05/27 03:51:14;;;;;;;25.42;10.68;;;;;;;;;;5025562;28;20432;-59
2023/05/27 03:53:41;;;;;;;27.55;10.35;;;;;;;;;;5025564;28;20412;-59
2023/05/27 03:56:08;;;;;;;25.50;10.82;;;;;;;;;;5024957;28;20883;-57
2023/05/27 03:58:37;;;;;;;25.38;10.50;;;;;;;;;;5025101;28;20837;-58
2023/05/27 04:01:05;;;;;;;27.75;11.27;;;;;;;;;;5024278;28;20453;-59
2023/05/27 04:03:33;;;;;;;27.80;10.23;;;;;;;;;;5029354;28;20427;-59
2023/05/27 04:06:00;;;;;;;24.95;10.27;;;;;;;;;;5030948;28;20825;-59
2023/05/27 04:08:27;;;;;;;25.88;10.88;;;;;;;;;;5027660;28;20493;-60
2023/05/27 04:10:54;;;;;;;27.40;10.63;;;;;;;;;;5026155;28;20427;-59
2023/05/27 04:13:21;;;;;;;26.70;11.10;;;;;;;;;;5028702;28;20418;-59
2023/05/27 04:15:49;;;;;;;24.75;10.70;;;;;;;;;;5021842;28;20469;-58
2023/05/27 04:18:16;;;;;;;22.92;10.30;;;;;;;;;;5026757;28;20473;-59
2023/05/27 04:20:46;;;;;;;28.70;9.75;;;;;;;;;;5019982;28;20457;-60
2023/05/27 04:23:14;;;;;;;27.10;10.68;;;;;;;;;;5023390;28;20411;-59
2023/05/27 04:25:41;;;;;;;26.27;10.73;;;;;;;;;;5020381;28;20416;-59
2023/05/27 04:28:08;;;;;;;23.48;9.88;;;;;;;;;;5022554;28;20947;-59
2023/05/27 04:30:36;;;;;;;26.92;10.18;;;;;;;;;;5020865;28;20415;-57
2023/05/27 04:33:04;;;;;;;27.87;11.33;;;;;;;;;;5026446;28;20416;-59
2023/05/27 04:35:32;;;;;;;26.80;10.30;;;;;;;;;;5034452;28;20422;-59
2023/05/27 04:38:00;;;;;;;29.15;10.95;;;;;;;;;;5022532;28;20440;-59
2023/05/27 04:40:28;;;;;;;21.17;10.20;;;;;;;;;;5024700;28;20961;-59
2023/05/27 04:42:55;;;;;;;24.25;10.25;;;;;;;;;;5023026;28;20430;-59
2023/05/27 04:45:23;;;;;;;25.85;11.35;;;;;;;;;;5019682;28;20861;-58
2023/05/27 04:47:50;;;;;;;24.40;11.55;;;;;;;;;;5024508;28;20422;-59
2023/05/27 04:50:18;;;;;;;25.35;10.82;;;;;;;;;;5028580;28;20419;-58
2023/05/27 04:52:45;;;;;;;24.30;10.90;;;;;;;;;;5019458;28;20431;-58
2023/05/27 04:55:13;;;;;;;22.88;10.20;;;;;;;;;;5018708;28;20423;-57
2023/05/27 04:57:42;;;;;;;22.05;10.38;;;;;;;;;;5023430;28;20482;-58
2023/05/27 05:00:22;;;;;;;24.08;10.95;;;;;;;;;;5020575;28;20408;-57
2023/05/27 05:02:49;;;;;;;22.88;10.15;;;;;;;;;;5028543;28;20915;-59
2023/05/27 05:05:17;;;;;;;24.87;10.93;;;;;;;;;;5023957;28;20423;-59
2023/05/27 05:07:45;;;;;;;21.33;10.63;;;;;;;;;;5024599;28;20423;-59
2023/05/27 05:10:12;;;;;;;24.42;10.75;;;;;;;;;;5021727;28;20423;-59
2023/05/27 05:12:41;;;;;;;29.05;11.02;;;;;;;;;;5023994;28;20429;-59
2023/05/27 05:15:08;;;;;;;23.10;11.43;;;;;;;;;;5019207;28;20423;-59
2023/05/27 05:17:35;;;;;;;30.80;11.38;;;;;;;;;;5023930;28;20424;-59
2023/05/27 05:20:03;;;;;;;22.90;11.50;;;;;;;;;;5028629;28;20423;-60
2023/05/27 05:22:30;;;;;;;25.13;11.07;;;;;;;;;;5023284;28;20447;-59
2023/05/27 05:24:58;;;;;;;24.85;10.82;;;;;;;;;;5020234;28;20420;-60
2023/05/27 05:27:25;;;;;;;26.75;11.15;;;;;;;;;;5021664;28;20423;-59
2023/05/27 05:29:52;;;;;;;27.97;10.67;;;;;;;;;;5022474;28;20420;-60
2023/05/27 05:32:19;;;;;;;24.13;10.90;;;;;;;;;;5020743;28;20511;-60
2023/05/27 05:34:46;;;;;;;20.30;9.70;;;;;;;;;;5032881;28;20421;-58
2023/05/27 05:37:13;;;;;;;24.10;10.33;;;;;;;;;;5026970;28;20477;-59
2023/05/27 05:39:42;;;;;;;22.35;9.98;;;;;;;;;;5024143;28;20412;-59
2023/05/27 05:42:10;;;;;;;19.53;9.23;;;;;;;;;;5023948;28;20913;-59
2023/05/27 05:44:39;;;;;;;24.90;9.97;;;;;;;;;;5024584;28;20411;-57
2023/05/27 05:47:06;;;;;;;20.15;9.30;;;;;;;;;;5020530;28;20425;-60
2023/05/27 05:49:33;;;;;;;24.25;9.73;;;;;;;;;;5023975;28;20432;-59
2023/05/27 05:52:00;;;;;;;22.58;10.05;;;;;;;;;;5020880;28;20430;-58
2023/05/27 05:54:27;;;;;;;22.20;9.90;;;;;;;;;;5024178;28;20416;-58
2023/05/27 05:56:54;;;;;;;22.75;10.00;;;;;;;;;;5023311;28;20419;-58
2023/05/27 05:59:22;;;;;;;22.20;9.13;;;;;;;;;;5015964;28;20508;-59
2023/05/27 06:01:49;;;;;;;21.17;9.10;;;;;;;;;;5016824;28;20410;-59
2023/05/27 06:04:17;;;;;;;23.00;8.30;;;;;;;;;;5020544;28;20472;-58
2023/05/27 06:06:44;;;;;;;21.63;8.60;;;;;;;;;;5037412;28;20492;-56
2023/05/27 06:09:11;;;;;;;21.98;8.95;;;;;;;;;;5024738;28;20488;-59
2023/05/27 06:11:37;;;;;;;21.03;8.47;;;;;;;;;;5027520;28;20439;-59
2023/05/27 06:14:05;;;;;;;18.42;7.70;;;;;;;;;;5029176;28;20465;-57
2023/05/27 06:16:35;;;;;;;19.63;7.85;;;;;;;;;;5027965;28;20453;-59
2023/05/27 06:19:02;;;;;;;21.75;8.13;;;;;;;;;;5012263;28;20955;-58
2023/05/27 06:21:31;;;;;;;22.83;8.27;;;;;;;;;;5011502;28;20420;-58
2023/05/27 06:23:58;;;;;;;24.73;8.60;;;;;;;;;;5011169;28;20555;-58
2023/05/27 06:26:25;;;;;;;22.27;8.00;;;;;;;;;;5010967;28;20482;-58
2023/05/27 06:28:52;;;;;;;22.08;8.70;;;;;;;;;;5027395;28;20430;-57
2023/05/27 06:31:19;;;;;;;20.17;7.47;;;;;;;;;;5018053;28;20488;-58
2023/05/27 06:33:48;;;;;;;21.25;8.05;;;;;;;;;;5021840;28;20453;-59
2023/05/27 06:36:14;;;;;;;16.63;8.38;;;;;;;;;;5028796;28;20899;-59
2023/05/27 06:38:41;;;;;;;17.05;8.25;;;;;;;;;;5024692;28;20834;-59
2023/05/27 06:41:08;;;;;;;18.90;7.97;;;;;;;;;;5012796;28;20858;-58
2023/05/27 06:43:35;;;;;;;26.02;10.05;;;;;;;;;;5021133;28;20471;-58
2023/05/27 06:46:02;;;;;;;18.25;8.55;;;;;;;;;;5025923;28;20425;-59
2023/05/27 06:48:29;;;;;;;20.80;8.57;;;;;;;;;;5027093;28;20415;-58
2023/05/27 06:50:58;;;;;;;17.40;8.40;;;;;;;;;;5020161;28;20507;-57
2023/05/27 06:53:25;;;;;;;23.90;9.38;;;;;;;;;;5021881;28;20424;-59
2023/05/27 06:55:52;;;;;;;20.75;8.13;;;;;;;;;;5027486;28;20422;-58
2023/05/27 06:58:19;;;;;;;19.58;8.38;;;;;;;;;;5023630;28;21158;-59
2023/05/27 07:00:46;;;;;;;16.90;8.30;;;;;;;;;;5021126;28;20899;-59
2023/05/27 07:03:13;;;;;;;18.08;7.78;;;;;;;;;;5027026;28;20847;-59
2023/05/27 07:05:40;;;;;;;17.95;7.63;;;;;;;;;;5023800;28;20423;-59
2023/05/27 07:08:09;;;;;;;21.00;7.35;;;;;;;;;;5027193;28;20423;-59
2023/05/27 07:10:36;;;;;;;18.73;8.10;;;;;;;;;;5019572;28;20471;-60
2023/05/27 07:13:03;;;;;;;18.25;7.60;;;;;;;;;;5020102;28;20477;-57
2023/05/27 07:15:30;;;;;;;21.42;8.05;;;;;;;;;;5023598;28;20484;-59
2023/05/27 07:17:58;;;;;;;20.45;7.93;;;;;;;;;;5027281;28;20783;-59
2023/05/27 07:20:25;;;;;;;20.73;7.75;;;;;;;;;;5031468;28;20458;-59
2023/05/27 07:22:52;;;;;;;18.25;7.72;;;;;;;;;;5025968;28;20461;-60
2023/05/27 07:25:20;;;;;;;15.95;7.40;;;;;;;;;;5025038;28;20419;-60
2023/05/27 07:27:47;;;;;;;15.57;7.40;;;;;;;;;;5025437;28;20427;-60
2023/05/27 07:30:15;;;;;;;18.45;7.45;;;;;;;;;;5022350;28;20417;-60
2023/05/27 07:32:41;;;;;;;19.92;7.07;;;;;;;;;;5022239;28;20785;-60
2023/05/27 07:35:09;;;;;;;20.95;8.18;;;;;;;;;;5024453;28;20473;-60
2023/05/27 07:37:35;;;;;;;19.27;8.27;;;;;;;;;;5028646;28;20419;-60
2023/05/27 07:40:03;;;;;;;18.80;7.60;;;;;;;;;;5021342;28;20415;-60
2023/05/27 07:42:31;;;;;;;17.92;7.78;;;;;;;;;;5020411;28;20960;-60
2023/05/27 07:44:58;;;;;;;19.63;8.02;;;;;;;;;;5032339;28;20764;-59
2023/05/27 07:47:26;;;;;;;23.70;8.20;;;;;;;;;;5025634;28;20422;-61
2023/05/27 07:49:53;;;;;;;20.23;7.80;;;;;;;;;;5029495;28;20419;-60
2023/05/27 07:52:19;;;;;;;19.42;7.75;;;;;;;;;;5020497;28;20907;-60
2023/05/27 07:54:47;;;;;;;20.60;7.95;;;;;;;;;;5020676;28;20808;-60
2023/05/27 07:57:16;;;;;;;18.60;7.97;;;;;;;;;;5021823;28;20427;-60
2023/05/27 07:59:45;;;;;;;19.55;7.45;;;;;;;;;;5028336;28;20454;-59
2023/05/27 08:02:12;;;;;;;20.13;7.32;;;;;;;;;;5032829;28;20464;-59
2023/05/27 08:04:39;;;;;;;18.00;7.45;;;;;;;;;;5025619;28;20419;-59
2023/05/27 08:07:06;;;;;;;18.63;7.38;;;;;;;;;;5030731;28;20430;-61
2023/05/27 08:09:33;;;;;;;18.08;7.35;;;;;;;;;;5028739;28;20510;-60
2023/05/27 08:12:00;;;;;;;16.60;7.20;;;;;;;;;;5028362;28;20919;-60
2023/05/27 08:14:28;;;;;;;17.80;7.50;;;;;;;;;;5024804;28;20552;-60
2023/05/27 08:16:56;;;;;;;17.73;7.15;;;;;;;;;;5023524;28;20456;-57
2023/05/27 08:19:23;;;;;;;19.25;7.85;;;;;;;;;;5023758;28;20448;-60
2023/05/27 08:21:50;;;;;;;17.63;7.37;;;;;;;;;;5021345;28;20517;-61
2023/05/27 08:24:18;;;;;;;17.33;7.00;;;;;;;;;;5029224;28;20457;-61
2023/05/27 08:26:45;;;;;;;16.90;6.78;;;;;;;;;;5020452;28;20496;-61
2023/05/27 08:29:12;;;;;;;17.00;6.50;;;;;;;;;;5022519;28;20423;-60
2023/05/27 08:31:39;;;;;;;14.93;6.90;;;;;;;;;;5025933;28;20508;-60
2023/05/27 08:34:07;;;;;;;17.17;6.80;;;;;;;;;;5024029;28;20482;-63
2023/05/27 08:36:35;;;;;;;14.77;7.18;;;;;;;;;;5026921;28;20435;-63
2023/05/27 08:39:02;;;;;;;17.63;7.20;;;;;;;;;;5025976;28;20457;-63
2023/05/27 08:41:30;;;;;;;18.02;6.60;;;;;;;;;;5025676;28;20920;-63
2023/05/27 08:43:57;;;;;;;16.98;6.47;;;;;;;;;;5023411;28;20951;-61
2023/05/27 08:46:24;;;;;;;16.90;7.47;;;;;;;;;;5021900;28;20458;-61
2023/05/27 08:48:51;;;;;;;16.33;6.53;;;;;;;;;;5023919;28;20417;-61
2023/05/27 08:51:20;;;;;;;14.45;6.70;;;;;;;;;;5021054;28;20828;-60
2023/05/27 08:53:47;;;;;;;17.52;6.60;;;;;;;;;;5023836;28;20465;-58
2023/05/27 08:56:16;;;;;;;17.48;6.20;;;;;;;;;;5028416;28;20477;-59
2023/05/27 08:58:43;;;;;;;16.20;6.40;;;;;;;;;;5023745;28;20429;-59
2023/05/27 09:01:10;;;;;;;16.08;6.20;;;;;;;;;;5019132;28;20435;-60
2023/05/27 09:03:38;;;;;;;17.25;6.60;;;;;;;;;;5021129;28;20421;-59
2023/05/27 09:06:05;;;;;;;18.63;6.20;;;;;;;;;;5028487;28;20422;-61
2023/05/27 09:08:33;;;;;;;14.30;6.07;;;;;;;;;;5022429;28;20832;-62
2023/05/27 09:11:00;;;;;;;18.90;5.93;;;;;;;;;;5019719;28;20432;-62
2023/05/27 09:13:28;;;;;;;14.60;6.00;;;;;;;;;;5028808;28;20438;-62
2023/05/27 09:16:01;;;;;;;16.30;5.90;;;;;;;;;;5022689;28;20448;-59
2023/05/27 09:18:29;;;;;;;18.77;5.80;;;;;;;;;;5018816;28;20416;-61
2023/05/27 09:20:56;;;;;;;15.10;5.30;;;;;;;;;;5027981;28;20820;-57
2023/05/27 09:23:23;;;;;;;17.13;6.20;;;;;;;;;;5021483;28;20443;-57
2023/05/27 09:25:52;;;;;;;13.15;5.70;;;;;;;;;;5021592;28;20419;-60
2023/05/27 09:28:22;;;;;;;15.25;5.82;;;;;;;;;;5028298;28;20419;-61
2023/05/27 09:30:53;;;;;;;15.25;5.30;;;;;;;;;;5021695;28;20486;-61
2023/05/27 09:33:24;;;;;;;16.40;5.50;;;;;;;;;;5024597;28;20453;-60
2023/05/27 09:35:51;;;;;;;16.13;5.30;;;;;;;;;;5026922;28;20420;-61
2023/05/27 09:38:18;;;;;;;13.40;5.35;;;;;;;;;;5020765;28;20471;-62
2023/05/27 09:40:46;;;;;;;14.87;4.77;;;;;;;;;;5021030;28;20422;-61
2023/05/27 09:43:16;;;;;;;17.38;5.80;;;;;;;;;;5022375;28;20415;-61
2023/05/27 09:45:43;;;;;;;12.82;5.05;;;;;;;;;;5020569;28;20412;-59
2023/05/27 09:48:11;;;;;;;15.30;5.00;;;;;;;;;;5022362;28;20431;-58
2023/05/27 09:50:38;;;;;;;13.25;5.30;;;;;;;;;;5019979;28;20828;-58
2023/05/27 09:53:05;;;;;;;14.52;5.25;;;;;;;;;;5023217;28;20914;-60
2023/05/27 09:55:32;;;;;;;12.65;4.90;;;;;;;;;;5021752;28;20472;-56
2023/05/27 09:58:00;;;;;;;14.23;5.03;;;;;;;;;;5020827;28;20421;-59
2023/05/27 10:00:31;;;;;;;15.30;5.70;;;;;;;;;;5019210;28;21034;-59
2023/05/27 10:03:01;;;;;;;14.30;5.65;;;;;;;;;;5027180;28;20428;-59
2023/05/27 10:05:29;;;;;;;12.27;5.20;;;;;;;;;;5023904;28;20456;-61
2023/05/27 10:07:57;;;;;;;13.23;4.80;;;;;;;;;;5021410;28;20425;-60
2023/05/27 10:10:24;;;;;;;10.03;4.27;;;;;;;;;;5021538;28;20414;-60
2023/05/27 10:12:53;;;;;;;13.45;5.38;;;;;;;;;;5019716;28;20463;-60
2023/05/27 10:15:24;;;;;;;15.30;5.70;;;;;;;;;;5019902;28;20421;-58
2023/05/27 10:17:54;;;;;;;14.02;5.13;;;;;;;;;;5022370;28;20422;-60
2023/05/27 10:20:28;;;;;;;12.37;4.80;;;;;;;;;;5029285;28;20423;-60
2023/05/27 10:22:56;;;;;;;16.73;5.68;;;;;;;;;;5021820;28;20411;-57
2023/05/27 10:25:23;;;;;;;14.55;5.55;;;;;;;;;;5021853;28;20419;-61
2023/05/27 10:27:50;;;;;;;13.50;4.75;;;;;;;;;;5019811;28;20900;-60
2023/05/27 10:30:17;;;;;;;17.48;5.20;;;;;;;;;;5019364;28;20427;-60
2023/05/27 10:32:55;;;;;;;11.75;4.07;;;;;;;;;;5021366;28;20427;-61
2023/05/27 10:35:23;;;;;;;12.80;5.07;;;;;;;;;;5024527;28;20491;-59
2023/05/27 10:37:50;;;;;;;14.20;4.57;;;;;;;;;;5022915;28;20790;-58
2023/05/27 10:40:25;;;;;;;17.80;5.10;;;;;;;;;;5019513;28;20428;-60
2023/05/27 10:43:00;;;;;;;12.17;5.00;;;;;;;;;;5020407;28;20423;-58
2023/05/27 10:45:33;;;;;;;18.63;5.30;;;;;;;;;;5019105;28;20452;-60
2023/05/27 10:48:01;;;;;;;13.95;5.10;;;;;;;;;;5020135;28;20503;-58
2023/05/27 10:50:33;;;;;;;13.50;5.40;;;;;;;;;;5023232;28;20474;-61
2023/05/27 10:53:01;;;;;;;10.23;4.38;;;;;;;;;;5032095;28;20441;-60
2023/05/27 10:55:28;;;;;;;9.77;4.57;;;;;;;;;;5023211;28;20427;-61
2023/05/27 10:57:55;;;;;;;12.23;5.22;;;;;;;;;;5023068;28;21071;-59
2023/05/27 11:00:24;;;;;;;13.10;5.05;;;;;;;;;;5031464;28;20436;-61
2023/05/27 11:02:52;;;;;;;15.38;4.78;;;;;;;;;;5023941;28;20825;-61
2023/05/27 11:05:21;;;;;;;12.02;4.88;;;;;;;;;;5026135;28;20492;-61
2023/05/27 11:07:48;;;;;;;14.60;5.20;;;;;;;;;;5024481;28;20422;-61
2023/05/27 11:10:15;;;;;;;11.35;4.50;;;;;;;;;;5026465;28;20466;-61
2023/05/27 11:12:45;;;;;;;12.85;4.85;;;;;;;;;;5028447;28;20498;-61
2023/05/27 11:15:12;;;;;;;12.63;4.63;;;;;;;;;;5023469;28;20426;-61
2023/05/27 11:17:39;;;;;;;13.40;4.70;;;;;;;;;;5028080;28;20432;-61
2023/05/27 11:20:07;;;;;;;15.30;4.90;;;;;;;;;;5029341;28;20418;-61
2023/05/27 11:22:36;;;;;;;12.85;5.35;;;;;;;;;;5031089;28;20511;-61
2023/05/27 11:25:05;;;;;;;12.43;5.03;;;;;;;;;;5026086;28;20432;-61
2023/05/27 11:27:36;;;;;;;9.95;5.00;;;;;;;;;;5024798;28;20418;-61
2023/05/27 11:30:09;;;;;;;15.27;5.53;;;;;;;;;;5023922;28;20418;-61
2023/05/27 11:32:36;;;;;;;13.00;5.63;;;;;;;;;;5013416;28;20421;-61
2023/05/27 11:35:05;;;;;;;13.03;5.20;;;;;;;;;;5028526;28;20427;-59
2023/05/27 11:37:32;;;;;;;14.68;4.88;;;;;;;;;;5025747;28;20452;-60
2023/05/27 11:40:01;;;;;;;14.98;5.20;;;;;;;;;;5032124;28;20439;-62
2023/05/27 11:42:29;;;;;;;13.20;4.70;;;;;;;;;;5023769;28;20426;-62
2023/05/27 11:44:59;;;;;;;12.63;5.10;;;;;;;;;;5029561;28;20411;-62
2023/05/27 11:47:26;;;;;;;11.25;5.00;;;;;;;;;;5024390;28;20425;-57
2023/05/27 11:49:54;;;;;;;13.05;5.28;;;;;;;;;;5020896;28;20418;-68
2023/05/27 11:52:21;;;;;;;13.70;5.13;;;;;;;;;;5024460;28;20885;-65
2023/05/27 11:54:51;;;;;;;14.45;5.25;;;;;;;;;;5024402;28;20440;-65
2023/05/27 11:57:20;;;;;;;10.18;4.57;;;;;;;;;;5025436;28;20431;-63
2023/05/27 11:59:47;;;;;;;12.03;4.73;;;;;;;;;;5023382;28;20588;-64
2023/05/27 12:02:14;;;;;;;9.27;4.85;;;;;;;;;;5023269;28;20758;-64
2023/05/27 12:04:41;;;;;;;12.70;5.38;;;;;;;;;;5024819;28;20465;-65
2023/05/27 12:07:08;;;;;;;12.55;4.95;;;;;;;;;;5024266;28;20419;-65
2023/05/27 12:09:35;;;;;;;12.07;5.38;;;;;;;;;;5028668;28;20422;-65
2023/05/27 12:12:02;;;;;;;12.47;5.60;;;;;;;;;;5019991;28;20432;-64
2023/05/27 12:14:31;;;;;;;13.50;5.03;;;;;;;;;;5024002;28;20438;-63
2023/05/27 12:16:58;;;;;;;15.10;5.05;;;;;;;;;;5020628;28;20815;-62
2023/05/27 12:19:24;;;;;;;12.25;4.78;;;;;;;;;;5023548;28;20465;-63
2023/05/27 12:21:51;;;;;;;12.30;4.97;;;;;;;;;;5023583;28;20421;-65
2023/05/27 12:24:19;;;;;;;17.02;5.28;;;;;;;;;;5023543;28;20475;-64
2023/05/27 12:26:46;;;;;;;11.27;4.80;;;;;;;;;;5024634;28;20432;-65
2023/05/27 12:29:13;;;;;;;10.65;4.85;;;;;;;;;;5025703;28;20926;-64
2023/05/27 12:31:42;;;;;;;12.27;4.88;;;;;;;;;;5021674;28;20426;-64
2023/05/27 12:34:09;;;;;;;12.43;4.60;;;;;;;;;;5020040;28;20483;-64
2023/05/27 12:36:36;;;;;;;13.82;4.43;;;;;;;;;;5023138;28;20846;-65
2023/05/27 12:39:04;;;;;;;13.55;4.93;;;;;;;;;;5026034;28;20958;-64
2023/05/27 12:41:31;;;;;;;13.07;4.57;;;;;;;;;;5019310;28;20421;-64
2023/05/27 12:43:59;;;;;;;9.55;4.10;;;;;;;;;;5019261;28;20447;-64
2023/05/27 12:46:26;;;;;;;11.30;4.45;;;;;;;;;;5021881;28;21227;-64
2023/05/27 12:48:56;;;;;;;9.77;4.23;;;;;;;;;;5020952;28;20492;-65
2023/05/27 12:51:23;;;;;;;11.20;4.03;;;;;;;;;;5018348;28;20413;-64
2023/05/27 12:53:50;;;;;;;10.93;4.30;;;;;;;;;;5025435;28;20426;-64
2023/05/27 12:56:17;;;;;;;10.88;4.45;;;;;;;;;;5020447;28;20425;-64
2023/05/27 12:58:44;;;;;;;10.07;4.70;;;;;;;;;;5019910;28;20419;-65
2023/05/27 13:01:11;;;;;;;12.23;4.78;;;;;;;;;;5020656;28;20513;-63
2023/05/27 13:03:38;;;;;;;12.60;4.55;;;;;;;;;;5017946;28;20438;-67
2023/05/27 13:06:07;;;;;;;11.23;4.35;;;;;;;;;;5023176;28;20891;-63
2023/05/27 13:08:34;;;;;;;10.60;4.57;;;;;;;;;;5026009;28;20429;-63
2023/05/27 13:11:01;;;;;;;12.27;4.72;;;;;;;;;;5019116;28;20419;-64
2023/05/27 13:13:28;;;;;;;11.98;4.45;;;;;;;;;;5020589;28;20915;-64
2023/05/27 13:15:57;;;;;;;11.40;4.57;;;;;;;;;;5018561;28;20416;-63
2023/05/27 13:18:25;;;;;;;10.48;4.60;;;;;;;;;;5018702;28;20821;-63
2023/05/27 13:20:52;;;;;;;13.55;4.60;;;;;;;;;;5020951;28;20505;-62
2023/05/27 13:23:21;;;;;;;10.98;4.32;;;;;;;;;;5019472;28;20420;-65
2023/05/27 13:25:49;;;;;;;10.88;4.50;;;;;;;;;;5021247;28;20503;-63
2023/05/27 13:28:16;;;;;;;12.02;4.57;;;;;;;;;;5020368;28;20462;-63
2023/05/27 13:30:43;;;;;;;11.65;5.07;;;;;;;;;;5021668;28;21183;-63
2023/05/27 13:33:10;;;;;;;9.23;4.57;;;;;;;;;;5020275;28;20427;-63
2023/05/27 13:35:37;;;;;;;7.85;3.90;;;;;;;;;;5026196;28;20437;-63
2023/05/27 13:38:05;;;;;;;11.70;4.80;;;;;;;;;;5025109;28;20472;-62
2023/05/27 13:40:34;;;;;;;11.13;5.00;;;;;;;;;;5024887;28;20435;-63
2023/05/27 13:43:01;;;;;;;9.85;4.15;;;;;;;;;;5024644;28;20422;-63
2023/05/27 13:45:28;;;;;;;12.90;4.68;;;;;;;;;;5020267;28;20763;-62
2023/05/27 13:47:55;;;;;;;12.48;4.90;;;;;;;;;;5019266;28;20467;-63
2023/05/27 13:50:22;;;;;;;14.43;4.85;;;;;;;;;;5025776;28;20423;-63
2023/05/27 13:52:49;;;;;;;12.68;4.70;;;;;;;;;;5023182;28;20426;-64
2023/05/27 13:55:16;;;;;;;11.23;4.77;;;;;;;;;;5019239;28;20484;-64
2023/05/27 13:57:45;;;;;;;11.32;4.60;;;;;;;;;;5023190;28;20442;-62
2023/05/27 14:00:13;;;;;;;13.10;4.47;;;;;;;;;;5027669;28;20529;-63
2023/05/27 14:02:40;;;;;;;10.35;4.38;;;;;;;;;;5024286;28;20475;-64
2023/05/27 14:05:07;;;;;;;8.77;4.15;;;;;;;;;;5026293;28;20823;-63
2023/05/27 14:07:34;;;;;;;11.38;4.63;;;;;;;;;;5023091;28;20889;-64
2023/05/27 14:10:01;;;;;;;10.32;4.55;;;;;;;;;;5019850;28;20496;-63
2023/05/27 14:12:28;;;;;;;11.70;4.25;;;;;;;;;;5027971;28;20424;-64
2023/05/27 14:14:57;;;;;;;10.10;4.28;;;;;;;;;;5020420;28;20481;-63
2023/05/27 14:17:24;;;;;;;8.50;4.47;;;;;;;;;;5021395;28;20415;-63
2023/05/27 14:19:51;;;;;;;10.18;4.20;;;;;;;;;;5027439;28;20423;-64
2023/05/27 14:22:18;;;;;;;11.57;4.30;;;;;;;;;;5021846;28;20484;-64
2023/05/27 14:24:45;;;;;;;10.57;4.32;;;;;;;;;;5022415;28;20404;-65
2023/05/27 14:27:12;;;;;;;13.25;4.38;;;;;;;;;;5028054;28;20816;-65
2023/05/27 14:29:39;;;;;;;11.80;4.60;;;;;;;;;;5026473;28;20416;-65
2023/05/27 14:32:08;;;;;;;10.02;4.60;;;;;;;;;;5024491;28;20937;-65